Sandakan Airport Sandakan MY
ICAO: WBKS
IATA:
Category: Medium
Scheduled Services:

Elevation: 46 ft
TransAlt. 11000 ft.

Airport Communications:
APP:123.2
GND:121.9
TWR:121.05

WBKS Zoom In..

If you have problems with the map follow the link
https://www.worldairports.se/pages/airport.php?
ICAO=WBKS

Runways:

(A) RW 08 length 6998 ft width 148 ft
ILS 109.30 / hdg 81

(B) RW 26 length 6998 ft width 148 ft
---- / hdg 261

Location; WBKS
Day. 14 / Time. 09.00 Zulu
* QNH: 1006
* Temperature: 30° c. 86°f.
* Wind from: 020° Speed 07 kn.
Dewpoint: 24° c.
Visibility: 10 km or more.
Clouds: Few 1700 ft.
Clouds: Broken 3000 ft.

WBKS 140900Z 02007KT 340V050 9999 FEW017 BKN300 30/24 Q1006


Wind From 020°
Speed 07 kn.

 
 
jpsmedia worldairports.se 2019   terms of use